sensor_id;sensor_type;location;lat;lon;timestamp;pressure;altitude;pressure_sealevel;temperature;humidity
19845;BME280;10083;51.038;7.012;2023-04-30T13:22:39;102228.69;;;28.12;nan
19845;BME280;10083;51.038;7.012;2023-04-30T13:25:10;102338.34;;;28.32;nan
19845;BME280;10083;51.038;7.012;2023-04-30T13:27:40;102385.50;;;25.67;nan
19845;BME280;10083;51.038;7.012;2023-04-30T13:30:09;102524.53;;;23.83;nan
19845;BME280;10083;51.038;7.012;2023-04-30T13:32:40;102620.94;;;22.51;nan
19845;BME280;10083;51.038;7.012;2023-04-30T13:35:08;102681.56;;;21.47;nan
19845;BME280;10083;51.038;7.012;2023-04-30T13:37:41;102698.47;;;21.57;nan
19845;BME280;10083;51.038;7.012;2023-04-30T13:40:11;102774.22;;;24.64;nan
19845;BME280;10083;51.038;7.012;2023-04-30T13:42:47;102623.22;;;26.47;nan
19845;BME280;10083;51.038;7.012;2023-04-30T13:45:15;102413.44;;;26.61;nan
19845;BME280;10083;51.038;7.012;2023-04-30T13:48:09;102300.88;;;27.92;nan
19845;BME280;10083;51.038;7.012;2023-04-30T13:50:50;102251.09;;;27.30;nan
19845;BME280;10083;51.038;7.012;2023-04-30T13:53:33;102354.56;;;27.33;nan
19845;BME280;10083;51.038;7.012;2023-04-30T16:44:51;102561.09;;;18.67;nan
19845;BME280;10083;51.038;7.012;2023-04-30T19:30:38;102742.34;;;14.72;nan
19845;BME280;10083;51.038;7.012;2023-04-30T19:33:05;102746.88;;;14.70;nan
19845;BME280;10083;51.038;7.012;2023-04-30T19:35:47;102764.06;;;14.55;nan
19845;BME280;10083;51.038;7.012;2023-04-30T19:38:15;102756.03;;;14.46;nan
19845;BME280;10083;51.038;7.012;2023-04-30T19:40:46;102771.34;;;14.42;nan
19845;BME280;10083;51.038;7.012;2023-04-30T19:43:18;102774.06;;;14.38;nan
19845;BME280;10083;51.038;7.012;2023-04-30T19:46:48;102768.78;;;14.17;nan
19845;BME280;10083;51.038;7.012;2023-04-30T19:49:25;102778.72;;;14.04;nan
19845;BME280;10083;51.038;7.012;2023-04-30T19:52:14;102782.31;;;14.01;nan
19845;BME280;10083;51.038;7.012;2023-04-30T19:54:42;102786.84;;;13.99;nan
19845;BME280;10083;51.038;7.012;2023-04-30T19:57:13;102791.34;;;13.93;nan
19845;BME280;10083;51.038;7.012;2023-04-30T19:59:41;102786.88;;;13.84;nan
19845;BME280;10083;51.038;7.012;2023-04-30T20:02:13;102802.22;;;13.69;nan
19845;BME280;10083;51.038;7.012;2023-04-30T20:04:40;102817.53;;;13.56;nan
19845;BME280;10083;51.038;7.012;2023-04-30T20:07:07;102832.78;;;13.55;nan
19845;BME280;10083;51.038;7.012;2023-04-30T20:09:35;102843.56;;;13.51;nan
19845;BME280;10083;51.038;7.012;2023-04-30T20:12:03;102863.31;;;13.44;nan
19845;BME280;10083;51.038;7.012;2023-04-30T20:15:00;102894.69;;;13.51;nan
19845;BME280;10083;51.038;7.012;2023-04-30T20:17:56;102912.66;;;13.56;nan
19845;BME280;10083;51.038;7.012;2023-04-30T20:20:40;102917.16;;;13.53;nan
19845;BME280;10083;51.038;7.012;2023-04-30T20:23:52;102925.19;;;13.41;nan
19845;BME280;10083;51.038;7.012;2023-04-30T20:26:36;102946.75;;;13.53;nan
19845;BME280;10083;51.038;7.012;2023-04-30T20:29:05;102945.84;;;13.46;nan
19845;BME280;10083;51.038;7.012;2023-04-30T20:31:33;102948.53;;;13.42;nan
19845;BME280;10083;51.038;7.012;2023-04-30T20:34:34;102941.38;;;13.47;nan
19845;BME280;10083;51.038;7.012;2023-04-30T20:37:11;102952.13;;;13.53;nan
19845;BME280;10083;51.038;7.012;2023-04-30T20:42:01;102937.75;;;13.54;nan
19845;BME280;10083;51.038;7.012;2023-04-30T20:43:10;102925.19;;;13.36;nan
19845;BME280;10083;51.038;7.012;2023-04-30T20:45:38;102927.00;;;13.33;nan
19845;BME280;10083;51.038;7.012;2023-04-30T20:48:08;102944.94;;;13.32;nan
19845;BME280;10083;51.038;7.012;2023-04-30T20:50:37;102956.59;;;13.40;nan
19845;BME280;10083;51.038;7.012;2023-04-30T20:53:06;102957.50;;;13.32;nan
19845;BME280;10083;51.038;7.012;2023-04-30T20:55:33;102960.19;;;13.32;nan
19845;BME280;10083;51.038;7.012;2023-04-30T20:58:01;102960.19;;;13.20;nan
19845;BME280;10083;51.038;7.012;2023-04-30T21:00:28;102970.97;;;13.18;nan
19845;BME280;10083;51.038;7.012;2023-04-30T21:03:03;102997.78;;;13.07;nan
19845;BME280;10083;51.038;7.012;2023-04-30T21:05:30;103013.09;;;13.18;nan
19845;BME280;10083;51.038;7.012;2023-04-30T21:08:00;103009.44;;;13.06;nan
19845;BME280;10083;51.038;7.012;2023-04-30T21:10:28;103026.47;;;13.10;nan
19845;BME280;10083;51.038;7.012;2023-04-30T21:13:00;103039.06;;;13.09;nan
19845;BME280;10083;51.038;7.012;2023-04-30T21:15:29;103039.03;;;13.06;nan
19845;BME280;10083;51.038;7.012;2023-04-30T21:17:57;103031.84;;;12.99;nan
19845;BME280;10083;51.038;7.012;2023-04-30T21:20:25;103042.59;;;13.02;nan
19845;BME280;10083;51.038;7.012;2023-04-30T21:22:55;103030.94;;;12.97;nan
19845;BME280;10083;51.038;7.012;2023-04-30T21:25:24;103029.13;;;12.90;nan
19845;BME280;10083;51.038;7.012;2023-04-30T21:27:55;103043.47;;;12.94;nan
19845;BME280;10083;51.038;7.012;2023-04-30T21:31:02;103025.50;;;12.88;nan
19845;BME280;10083;51.038;7.012;2023-04-30T21:33:31;103030.03;;;12.98;nan
19845;BME280;10083;51.038;7.012;2023-04-30T21:35:58;103021.09;;;12.99;nan
19845;BME280;10083;51.038;7.012;2023-04-30T21:38:29;103009.41;;;12.90;nan
19845;BME280;10083;51.038;7.012;2023-04-30T21:40:58;103006.75;;;12.96;nan
19845;BME280;10083;51.038;7.012;2023-04-30T21:43:30;103008.50;;;12.94;nan
19845;BME280;10083;51.038;7.012;2023-04-30T21:46:00;103013.03;;;12.96;nan
19845;BME280;10083;51.038;7.012;2023-04-30T21:48:28;102984.31;;;12.88;nan
19845;BME280;10083;51.038;7.012;2023-04-30T21:50:58;102986.09;;;12.87;nan
19845;BME280;10083;51.038;7.012;2023-04-30T21:53:26;102979.78;;;12.88;nan
19845;BME280;10083;51.038;7.012;2023-04-30T21:55:54;102975.31;;;12.81;nan
19845;BME280;10083;51.038;7.012;2023-04-30T21:58:23;102986.06;;;12.86;nan
19845;BME280;10083;51.038;7.012;2023-04-30T22:00:52;102969.00;;;12.76;nan
19845;BME280;10083;51.038;7.012;2023-04-30T22:03:19;102986.06;;;12.84;nan
19845;BME280;10083;51.038;7.012;2023-04-30T22:05:51;102980.66;;;12.72;nan
19845;BME280;10083;51.038;7.012;2023-04-30T22:08:25;102958.25;;;12.73;nan
19845;BME280;10083;51.038;7.012;2023-04-30T22:10:57;102969.91;;;12.72;nan
19845;BME280;10083;51.038;7.012;2023-04-30T22:13:41;102971.72;;;12.75;nan
19845;BME280;10083;51.038;7.012;2023-04-30T22:16:10;102983.34;;;12.80;nan
19845;BME280;10083;51.038;7.012;2023-04-30T22:18:37;102977.03;;;12.67;nan
19845;BME280;10083;51.038;7.012;2023-04-30T22:21:05;102978.84;;;12.68;nan
19845;BME280;10083;51.038;7.012;2023-04-30T22:23:33;102987.84;;;12.75;nan
19845;BME280;10083;51.038;7.012;2023-04-30T22:26:01;102987.84;;;12.70;nan
19845;BME280;10083;51.038;7.012;2023-04-30T22:28:36;102995.88;;;12.65;nan
19845;BME280;10083;51.038;7.012;2023-04-30T22:31:06;102994.06;;;12.61;nan
19845;BME280;10083;51.038;7.012;2023-04-30T22:33:34;103005.75;;;12.69;nan
19845;BME280;10083;51.038;7.012;2023-04-30T22:36:03;103028.16;;;12.70;nan
19845;BME280;10083;51.038;7.012;2023-04-30T22:38:33;103047.88;;;12.75;nan
19845;BME280;10083;51.038;7.012;2023-04-30T22:41:02;103052.34;;;12.76;nan
19845;BME280;10083;51.038;7.012;2023-04-30T22:43:30;103069.41;;;12.77;nan
19845;BME280;10083;51.038;7.012;2023-04-30T22:45:58;103077.50;;;12.81;nan
19845;BME280;10083;51.038;7.012;2023-04-30T22:48:28;103083.72;;;12.69;nan
19845;BME280;10083;51.038;7.012;2023-04-30T22:50:56;103082.88;;;12.81;nan
19845;BME280;10083;51.038;7.012;2023-04-30T22:53:24;103098.06;;;12.70;nan
19845;BME280;10083;51.038;7.012;2023-04-30T22:55:52;103091.72;;;12.60;nan
19845;BME280;10083;51.038;7.012;2023-04-30T22:58:21;103114.19;;;12.72;nan
19845;BME280;10083;51.038;7.012;2023-04-30T23:00:49;103115.09;;;12.72;nan
19845;BME280;10083;51.038;7.012;2023-04-30T23:03:19;103104.28;;;12.63;nan
19845;BME280;10083;51.038;7.012;2023-04-30T23:05:49;103072.81;;;12.44;nan
19845;BME280;10083;51.038;7.012;2023-04-30T23:08:16;103028.84;;;12.34;nan
19845;BME280;10083;51.038;7.012;2023-04-30T23:10:44;102983.19;;;12.37;nan
19845;BME280;10083;51.038;7.012;2023-04-30T23:13:12;102943.78;;;12.41;nan
19845;BME280;10083;51.038;7.012;2023-04-30T23:15:40;102857.75;;;12.32;nan
19845;BME280;10083;51.038;7.012;2023-04-30T23:18:07;102844.38;;;12.38;nan
19845;BME280;10083;51.038;7.012;2023-04-30T23:20:35;102903.47;;;12.38;nan
19845;BME280;10083;51.038;7.012;2023-04-30T23:23:05;102967.13;;;12.48;nan
19845;BME280;10083;51.038;7.012;2023-04-30T23:25:33;103044.16;;;12.46;nan
19845;BME280;10083;51.038;7.012;2023-04-30T23:28:01;103121.19;;;12.45;nan
19845;BME280;10083;51.038;7.012;2023-04-30T23:30:29;103207.25;;;12.51;nan
19845;BME280;10083;51.038;7.012;2023-04-30T23:32:58;103259.22;;;12.55;nan
19845;BME280;10083;51.038;7.012;2023-04-30T23:35:25;103207.25;;;12.51;nan
19845;BME280;10083;51.038;7.012;2023-04-30T23:37:54;103248.56;;;12.64;nan
19845;BME280;10083;51.038;7.012;2023-04-30T23:40:23;103360.59;;;12.66;nan
19845;BME280;10083;51.038;7.012;2023-04-30T23:42:51;103408.19;;;12.74;nan
19845;BME280;10083;51.038;7.012;2023-04-30T23:45:19;103463.75;;;12.73;nan
19845;BME280;10083;51.038;7.012;2023-04-30T23:47:47;103490.69;;;12.79;nan
19845;BME280;10083;51.038;7.012;2023-04-30T23:50:16;103505.09;;;12.84;nan
19845;BME280;10083;51.038;7.012;2023-04-30T23:52:44;103521.25;;;12.86;nan
19845;BME280;10083;51.038;7.012;2023-04-30T23:55:12;103534.72;;;12.87;nan
19845;BME280;10083;51.038;7.012;2023-04-30T23:57:42;103541.88;;;12.88;nan
